Time;durP1;ratioP1;P1;durP2;ratioP2;P2;SDS_P1;SDS_P2;PMS_P1;PMS_P2;Temp;Humidity;BMP_temperature;BMP_pressure;BME280_temperature;BME280_humidity;BME280_pressure;Samples;Min_cycle;Max_cycle;Signal;HPM_P1;HPM_P2
2023/07/03 00:01:48;;;;;;;;;;;;;;;;;;;;;
2023/07/03 00:07:19;;;;;;;7.38;4.18;;;;;;;;;;13045566;22;20085;-83
2023/07/03 00:13:00;;;;;;;9.70;3.97;;;;;;;;;;13015674;22;20115;-83
2023/07/03 00:18:27;;;;;;;8.73;4.30;;;;;;;;;;13013280;22;20403;-83
2023/07/03 00:29:25;;;;;;;6.70;3.70;;;;;;;;;;13017518;22;20023;-82
2023/07/03 00:35:02;;;;;;;7.65;4.18;;;;;;;;;;13014607;22;20085;-83
2023/07/03 00:40:31;;;;;;;7.38;3.97;;;;;;;;;;12938150;22;20034;-83
2023/07/03 00:46:16;;;;;;;9.10;4.20;;;;;;;;;;12948382;22;20016;-82
2023/07/03 00:51:45;;;;;;;8.18;3.88;;;;;;;;;;12969815;22;20054;-83
2023/07/03 00:57:16;;;;;;;7.45;4.05;;;;;;;;;;12984314;22;20030;-83
2023/07/03 01:02:55;;;;;;;7.20;4.05;;;;;;;;;;12941001;22;20087;-83
2023/07/03 01:08:27;;;;;;;;;;;;;;;;;;;;;
2023/07/03 01:13:45;;;;;;;5.95;3.65;;;;;;;;;;12937562;22;20647;-83
2023/07/03 01:19:35;;;;;;;7.35;3.13;;;;;;;;;;12942650;22;20030;-83
2023/07/03 01:25:08;;;;;;;10.32;4.82;;;;;;;;;;12952323;22;20020;-82
2023/07/03 01:30:37;;;;;;;7.88;4.13;;;;;;;;;;12772052;22;20091;-83
2023/07/03 01:35:43;;;;;;;13.63;6.68;;;;;;;;;;13015444;22;20019;-82
2023/07/03 01:40:58;;;;;;;16.10;6.88;;;;;;;;;;13017899;22;20030;-82
2023/07/03 01:46:04;;;;;;;8.97;4.93;;;;;;;;;;13004096;22;20019;-82
2023/07/03 01:51:15;;;;;;;7.53;4.03;;;;;;;;;;13011632;22;20258;-81
2023/07/03 01:56:33;;;;;;;10.75;4.53;;;;;;;;;;13047734;22;20053;-82
2023/07/03 02:01:48;;;;;;;10.35;4.50;;;;;;;;;;13033404;22;20031;-82
2023/07/03 02:07:07;;;;;;;9.00;3.60;;;;;;;;;;13014763;22;20027;-82
2023/07/03 02:12:21;;;;;;;8.00;3.40;;;;;;;;;;13014463;22;20027;-82
2023/07/03 02:17:33;;;;;;;11.38;2.75;;;;;;;;;;13014442;22;20065;-82
2023/07/03 02:22:37;;;;;;;6.65;2.53;;;;;;;;;;13013692;22;20049;-82
2023/07/03 02:27:46;;;;;;;4.80;2.38;;;;;;;;;;13013274;22;20337;-82
2023/07/03 02:32:52;;;;;;;7.38;2.80;;;;;;;;;;13044328;22;20011;-83
2023/07/03 02:38:00;;;;;;;6.53;3.08;;;;;;;;;;12950085;22;20019;-83
2023/07/03 02:43:16;;;;;;;7.82;2.83;;;;;;;;;;12951237;22;20020;-83
2023/07/03 02:48:27;;;;;;;10.38;3.60;;;;;;;;;;12967429;22;20062;-82
2023/07/03 02:53:35;;;;;;;6.50;2.95;;;;;;;;;;12949812;22;20087;-82
2023/07/03 02:58:55;;;;;;;6.88;2.80;;;;;;;;;;12936699;22;20020;-83
2023/07/03 03:04:13;;;;;;;5.28;2.17;;;;;;;;;;12952269;22;20027;-83
2023/07/03 03:09:40;;;;;;;4.45;2.20;;;;;;;;;;12953928;22;20024;-83
2023/07/03 03:14:52;;;;;;;5.78;2.25;;;;;;;;;;12951612;22;20039;-82
2023/07/03 03:19:59;;;;;;;8.70;4.28;;;;;;;;;;12951185;22;20023;-81
2023/07/03 03:25:11;;;;;;;8.65;3.63;;;;;;;;;;12960115;22;20027;-82
2023/07/03 03:30:51;;;;;;;6.93;3.00;;;;;;;;;;12934245;22;20422;-82
2023/07/03 03:36:22;;;;;;;10.32;3.47;;;;;;;;;;12952914;22;20050;-82
2023/07/03 03:41:49;;;;;;;11.80;4.18;;;;;;;;;;13002365;22;20027;-83
2023/07/03 03:47:01;;;;;;;7.60;2.80;;;;;;;;;;13021812;22;20073;-82
2023/07/03 03:52:17;;;;;;;9.30;3.40;;;;;;;;;;13012700;22;20077;-82
2023/07/03 03:57:35;;;;;;;12.00;4.05;;;;;;;;;;13039727;22;20289;-82
2023/07/03 04:03:01;;;;;;;5.95;2.72;;;;;;;;;;13044647;22;20038;-82
2023/07/03 04:08:20;;;;;;;10.82;3.70;;;;;;;;;;12987339;22;20716;-82
2023/07/03 04:13:52;;;;;;;;;;;;;;;;;;;;;
2023/07/03 04:19:07;;;;;;;7.25;2.75;;;;;;;;;;13007494;22;20031;-82
2023/07/03 04:24:44;;;;;;;8.02;3.38;;;;;;;;;;13058224;22;20030;-82
2023/07/03 04:29:56;;;;;;;9.38;3.90;;;;;;;;;;12985963;22;20030;-82
2023/07/03 04:35:10;;;;;;;9.05;3.50;;;;;;;;;;13006998;22;20020;-85
2023/07/03 04:40:15;;;;;;;10.32;3.58;;;;;;;;;;12977868;22;20026;-84
2023/07/03 04:45:21;;;;;;;12.63;4.33;;;;;;;;;;12975871;22;20049;-85
2023/07/03 04:50:24;;;;;;;9.82;3.58;;;;;;;;;;12975285;22;20051;-86
2023/07/03 04:55:29;;;;;;;11.52;4.25;;;;;;;;;;12975235;22;20131;-85
2023/07/03 05:00:33;;;;;;;10.18;3.22;;;;;;;;;;12975859;22;20027;-86
2023/07/03 05:05:36;;;;;;;9.38;2.80;;;;;;;;;;12976304;22;20023;-86
2023/07/03 05:10:41;;;;;;;9.15;3.30;;;;;;;;;;12974067;22;20469;-86
2023/07/03 05:15:45;;;;;;;10.02;3.25;;;;;;;;;;12974128;22;20392;-86
2023/07/03 05:20:49;;;;;;;9.75;3.10;;;;;;;;;;12977732;22;20411;-85
2023/07/03 05:25:54;;;;;;;10.85;3.33;;;;;;;;;;12974875;22;20487;-84
2023/07/03 05:30:58;;;;;;;8.30;2.85;;;;;;;;;;12977157;22;20028;-83
2023/07/03 05:36:02;;;;;;;9.15;3.10;;;;;;;;;;12973486;22;20020;-83
2023/07/03 05:41:07;;;;;;;9.48;2.90;;;;;;;;;;12974588;22;20030;-83
2023/07/03 05:46:10;;;;;;;9.43;2.78;;;;;;;;;;12973882;22;20019;-85
2023/07/03 05:51:14;;;;;;;7.60;3.33;;;;;;;;;;12973265;22;20024;-84
2023/07/03 05:56:19;;;;;;;12.68;4.03;;;;;;;;;;12974096;22;20050;-85
2023/07/03 06:01:22;;;;;;;10.13;2.83;;;;;;;;;;12976049;22;20023;-85
2023/07/03 06:06:25;;;;;;;14.10;3.55;;;;;;;;;;12974409;22;20046;-85
2023/07/03 06:11:31;;;;;;;9.15;2.88;;;;;;;;;;12976499;22;20020;-84
2023/07/03 06:16:36;;;;;;;10.17;3.73;;;;;;;;;;13002912;22;20041;-84
2023/07/03 06:21:40;;;;;;;12.57;3.08;;;;;;;;;;12998363;22;20024;-84
2023/07/03 06:26:45;;;;;;;8.60;2.95;;;;;;;;;;12974034;22;20024;-84
2023/07/03 06:31:51;;;;;;;13.85;3.35;;;;;;;;;;12973024;22;20024;-84
2023/07/03 06:36:54;;;;;;;7.50;2.88;;;;;;;;;;12974499;22;20019;-84
2023/07/03 06:42:00;;;;;;;10.43;3.20;;;;;;;;;;13004017;22;20027;-84
2023/07/03 06:47:04;;;;;;;6.05;2.60;;;;;;;;;;12972523;22;20016;-84
2023/07/03 06:52:09;;;;;;;12.70;3.45;;;;;;;;;;12973196;22;20078;-84
2023/07/03 06:57:14;;;;;;;12.38;3.40;;;;;;;;;;12971878;22;20012;-84
2023/07/03 07:02:17;;;;;;;9.98;3.00;;;;;;;;;;12971252;22;20046;-85
2023/07/03 07:07:21;;;;;;;10.02;3.15;;;;;;;;;;12974769;22;20020;-85
2023/07/03 07:12:25;;;;;;;10.20;3.28;;;;;;;;;;12975406;22;20035;-85
2023/07/03 07:17:29;;;;;;;10.38;3.65;;;;;;;;;;13000725;22;20023;-83
2023/07/03 07:22:44;;;;;;;9.70;2.88;;;;;;;;;;13001421;22;20028;-84
2023/07/03 07:27:48;;;;;;;11.15;3.78;;;;;;;;;;12972612;22;20023;-86
2023/07/03 07:32:52;;;;;;;9.18;3.17;;;;;;;;;;13000221;22;20085;-84
2023/07/03 07:37:55;;;;;;;8.52;2.88;;;;;;;;;;13024231;22;20011;-85
2023/07/03 07:43:00;;;;;;;15.68;3.50;;;;;;;;;;12977585;22;20026;-85
2023/07/03 07:48:04;;;;;;;10.80;3.72;;;;;;;;;;12975550;22;20452;-84
2023/07/03 07:53:07;;;;;;;8.63;3.35;;;;;;;;;;12975730;22;20098;-84
2023/07/03 07:58:12;;;;;;;7.30;3.00;;;;;;;;;;12977662;22;20020;-84
2023/07/03 08:03:16;;;;;;;7.68;3.42;;;;;;;;;;12976496;22;20103;-86
2023/07/03 08:08:19;;;;;;;5.57;2.63;;;;;;;;;;12976399;22;20030;-84
2023/07/03 08:13:25;;;;;;;5.93;2.45;;;;;;;;;;12975754;22;20020;-85
2023/07/03 08:18:28;;;;;;;7.32;3.03;;;;;;;;;;12975225;22;20053;-85
2023/07/03 08:23:32;;;;;;;7.07;2.92;;;;;;;;;;12974608;22;20016;-85
2023/07/03 08:28:37;;;;;;;8.52;2.90;;;;;;;;;;12972370;22;20026;-85
2023/07/03 08:33:40;;;;;;;11.48;3.60;;;;;;;;;;12971933;22;20027;-84
2023/07/03 08:38:43;;;;;;;10.73;3.22;;;;;;;;;;12973509;22;20020;-85
2023/07/03 08:43:50;;;;;;;10.02;3.97;;;;;;;;;;12974617;22;20026;-85
2023/07/03 08:49:00;;;;;;;9.10;3.10;;;;;;;;;;13005564;22;20526;-84
2023/07/03 08:54:08;;;;;;;9.20;3.00;;;;;;;;;;12977753;22;20031;-84
2023/07/03 08:59:13;;;;;;;8.43;3.55;;;;;;;;;;12975269;22;20020;-85
2023/07/03 09:04:38;;;;;;;10.40;3.53;;;;;;;;;;12974087;22;20024;-85
2023/07/03 09:09:48;;;;;;;11.95;3.40;;;;;;;;;;12975633;22;20047;-84
2023/07/03 09:14:57;;;;;;;9.50;3.13;;;;;;;;;;12976112;22;20027;-85
2023/07/03 09:20:02;;;;;;;8.07;3.13;;;;;;;;;;13001621;22;20030;-85
2023/07/03 09:25:09;;;;;;;7.43;3.05;;;;;;;;;;12972497;22;20030;-86
2023/07/03 09:30:16;;;;;;;8.05;2.95;;;;;;;;;;12998718;22;20027;-85
2023/07/03 09:35:22;;;;;;;6.65;3.15;;;;;;;;;;12997810;22;20030;-84
2023/07/03 09:40:29;;;;;;;10.50;3.70;;;;;;;;;;13008536;22;20039;-86
2023/07/03 09:45:35;;;;;;;6.57;2.97;;;;;;;;;;12970492;22;20020;-85
2023/07/03 09:50:40;;;;;;;6.28;3.00;;;;;;;;;;12971850;22;20081;-85
2023/07/03 09:55:50;;;;;;;6.28;2.97;;;;;;;;;;13005992;22;20042;-85
2023/07/03 10:00:57;;;;;;;8.00;3.28;;;;;;;;;;12968392;22;20099;-86
2023/07/03 10:06:16;;;;;;;8.40;3.22;;;;;;;;;;12965823;22;20028;-85
2023/07/03 10:11:29;;;;;;;8.63;2.90;;;;;;;;;;12966612;22;20020;-85
2023/07/03 10:16:35;;;;;;;7.43;2.80;;;;;;;;;;12967608;22;20024;-85
2023/07/03 10:21:40;;;;;;;9.13;3.17;;;;;;;;;;12964720;22;20122;-86
2023/07/03 10:26:47;;;;;;;5.83;3.13;;;;;;;;;;12993133;22;20469;-84
2023/07/03 10:31:56;;;;;;;11.85;3.55;;;;;;;;;;12995955;22;20019;-84
2023/07/03 10:37:02;;;;;;;5.43;2.55;;;;;;;;;;12966305;22;20345;-85
2023/07/03 10:42:11;;;;;;;6.40;2.40;;;;;;;;;;12968234;22;20027;-84
2023/07/03 10:47:22;;;;;;;5.18;2.38;;;;;;;;;;12971098;22;20023;-84
2023/07/03 10:52:31;;;;;;;6.75;2.65;;;;;;;;;;12995675;22;20016;-84
2023/07/03 10:57:42;;;;;;;6.55;2.60;;;;;;;;;;12968018;22;20023;-84
2023/07/03 11:02:54;;;;;;;7.43;2.97;;;;;;;;;;12965484;22;20020;-84
2023/07/03 11:08:05;;;;;;;6.10;2.70;;;;;;;;;;13013302;22;20628;-85
2023/07/03 11:13:16;;;;;;;5.75;2.80;;;;;;;;;;13012837;22;20019;-85
2023/07/03 11:18:40;;;;;;;8.02;2.95;;;;;;;;;;12968412;22;20548;-85
2023/07/03 11:23:54;;;;;;;6.05;2.53;;;;;;;;;;12964716;22;20020;-84
2023/07/03 11:29:02;;;;;;;5.53;2.55;;;;;;;;;;12966315;22;20023;-84
2023/07/03 11:34:08;;;;;;;4.70;2.20;;;;;;;;;;12966772;22;20073;-84
2023/07/03 11:39:20;;;;;;;7.55;3.03;;;;;;;;;;12966288;22;20026;-84
2023/07/03 11:44:38;;;;;;;5.03;2.28;;;;;;;;;;12992343;22;20024;-84
2023/07/03 11:49:48;;;;;;;6.57;2.73;;;;;;;;;;12965210;22;20020;-84
2023/07/03 11:55:00;;;;;;;7.13;2.90;;;;;;;;;;12965565;22;20695;-84
2023/07/03 12:00:16;;;;;;;5.88;2.40;;;;;;;;;;12993042;22;20077;-85
2023/07/03 12:05:54;;;;;;;5.72;3.03;;;;;;;;;;12992177;22;20043;-84
2023/07/03 12:10:59;;;;;;;5.25;2.60;;;;;;;;;;12964310;22;20024;-84
2023/07/03 12:16:05;;;;;;;4.43;2.60;;;;;;;;;;12964118;22;20030;-83
2023/07/03 12:21:11;;;;;;;5.40;2.50;;;;;;;;;;12968072;22;20023;-84
2023/07/03 12:26:16;;;;;;;5.38;2.60;;;;;;;;;;12969148;22;20024;-84
2023/07/03 12:31:22;;;;;;;6.25;2.25;;;;;;;;;;12969624;22;20020;-84
2023/07/03 12:36:30;;;;;;;6.40;2.40;;;;;;;;;;12968500;22;20023;-84
2023/07/03 12:41:36;;;;;;;5.97;2.70;;;;;;;;;;12967120;22;20039;-84
2023/07/03 12:46:42;;;;;;;6.28;3.42;;;;;;;;;;12967724;22;20412;-85
2023/07/03 12:51:51;;;;;;;;;;;;;;;;;;12995558;22;20015;-85
2023/07/03 12:56:56;;;;;;;4.93;2.53;;;;;;;;;;12967506;22;19980;-86
2023/07/03 13:01:59;;;;;;;6.05;2.70;;;;;;;;;;12993390;22;20015;-84
2023/07/03 13:07:05;;;;;;;9.02;2.83;;;;;;;;;;12965783;22;20023;-85
2023/07/03 13:12:18;;;;;;;3.95;2.33;;;;;;;;;;12968322;22;20714;-84
2023/07/03 13:17:27;;;;;;;5.78;2.25;;;;;;;;;;12996633;22;20023;-84
2023/07/03 13:22:34;;;;;;;4.80;2.30;;;;;;;;;;12967286;22;20016;-84
2023/07/03 13:27:37;;;;;;;2.70;1.73;;;;;;;;;;12996018;22;20372;-84
2023/07/03 13:32:55;;;;;;;4.65;2.60;;;;;;;;;;12966907;22;20373;-84
2023/07/03 13:38:29;;;;;;;4.15;2.40;;;;;;;;;;12966057;22;20523;-84
2023/07/03 13:43:33;;;;;;;4.05;2.63;;;;;;;;;;13011320;22;20365;-84
2023/07/03 13:48:36;;;;;;;4.80;2.10;;;;;;;;;;12968049;22;20027;-85
2023/07/03 13:53:41;;;;;;;5.90;2.88;;;;;;;;;;12965894;22;20019;-85
2023/07/03 13:58:44;;;;;;;7.05;3.45;;;;;;;;;;12990262;22;20027;-84
2023/07/03 14:03:48;;;;;;;5.95;3.33;;;;;;;;;;12963467;22;20476;-84
2023/07/03 14:08:54;;;;;;;6.07;2.92;;;;;;;;;;12965092;22;20135;-84
2023/07/03 14:13:58;;;;;;;6.13;2.53;;;;;;;;;;13006946;22;20022;-84
2023/07/03 14:19:02;;;;;;;6.68;3.03;;;;;;;;;;12964496;22;20024;-85
2023/07/03 14:24:09;;;;;;;5.18;2.90;;;;;;;;;;12963714;22;20501;-84
2023/07/03 14:29:13;;;;;;;5.57;2.85;;;;;;;;;;12965302;22;20038;-84
2023/07/03 14:34:16;;;;;;;6.32;2.50;;;;;;;;;;12963348;22;20024;-84
2023/07/03 14:39:21;;;;;;;7.32;2.88;;;;;;;;;;12964803;22;20028;-84
2023/07/03 14:44:24;;;;;;;7.90;3.72;;;;;;;;;;12991565;22;20465;-84
2023/07/03 14:49:28;;;;;;;5.97;2.95;;;;;;;;;;12964519;22;20024;-84
2023/07/03 14:54:33;;;;;;;7.50;3.30;;;;;;;;;;12963335;22;20073;-84
2023/07/03 14:59:36;;;;;;;3.83;2.50;;;;;;;;;;12993763;22;20299;-84
2023/07/03 15:04:40;;;;;;;7.03;3.42;;;;;;;;;;12988534;22;20079;-85
2023/07/03 15:09:44;;;;;;;5.35;2.65;;;;;;;;;;12962987;22;20031;-86
2023/07/03 15:14:48;;;;;;;5.90;3.30;;;;;;;;;;12999864;22;20361;-84
2023/07/03 15:19:54;;;;;;;7.10;3.55;;;;;;;;;;12989436;22;20023;-84
2023/07/03 15:24:59;;;;;;;7.43;3.33;;;;;;;;;;12960551;22;20678;-84
2023/07/03 15:30:03;;;;;;;5.87;3.10;;;;;;;;;;12991434;22;20384;-85
2023/07/03 15:35:07;;;;;;;4.47;2.60;;;;;;;;;;12961579;22;20291;-85
2023/07/03 15:40:13;;;;;;;5.28;3.20;;;;;;;;;;13005442;22;20024;-85
2023/07/03 15:45:21;;;;;;;4.63;2.83;;;;;;;;;;12966815;22;20024;-86
2023/07/03 15:50:24;;;;;;;4.47;2.80;;;;;;;;;;12968929;22;20035;-85
2023/07/03 15:55:29;;;;;;;6.28;3.13;;;;;;;;;;12969864;22;20054;-84
2023/07/03 16:00:32;;;;;;;6.18;3.08;;;;;;;;;;13006241;22;20551;-84
2023/07/03 16:05:36;;;;;;;6.25;3.47;;;;;;;;;;12969106;22;20030;-85
2023/07/03 16:10:41;;;;;;;7.28;3.63;;;;;;;;;;12996278;22;20369;-85
2023/07/03 16:15:45;;;;;;;4.05;2.90;;;;;;;;;;13006476;22;20461;-85
2023/07/03 16:20:56;;;;;;;5.60;3.17;;;;;;;;;;12998541;22;20022;-84
2023/07/03 16:26:02;;;;;;;6.82;3.70;;;;;;;;;;12970687;22;20650;-85
2023/07/03 16:31:09;;;;;;;7.32;3.22;;;;;;;;;;12972260;22;20020;-85
2023/07/03 16:36:14;;;;;;;6.93;3.72;;;;;;;;;;12971578;22;20043;-84
2023/07/03 16:41:20;;;;;;;6.50;4.03;;;;;;;;;;12972171;22;20015;-85
2023/07/03 16:46:26;;;;;;;7.38;3.63;;;;;;;;;;12970794;22;20051;-84
2023/07/03 16:51:30;;;;;;;5.45;2.95;;;;;;;;;;12970462;22;20026;-84
2023/07/03 16:56:35;;;;;;;4.50;2.63;;;;;;;;;;13004542;22;20027;-83
2023/07/03 17:01:39;;;;;;;6.43;2.90;;;;;;;;;;12968813;22;20016;-83
2023/07/03 17:06:42;;;;;;;7.18;3.80;;;;;;;;;;12970194;22;20024;-84
2023/07/03 17:11:47;;;;;;;6.55;3.90;;;;;;;;;;12997888;22;20023;-84
2023/07/03 17:16:51;;;;;;;7.20;4.13;;;;;;;;;;12995558;22;20080;-84
2023/07/03 17:21:55;;;;;;;8.57;4.20;;;;;;;;;;12969965;22;20024;-83
2023/07/03 17:26:59;;;;;;;6.88;3.60;;;;;;;;;;12998906;22;20024;-83
2023/07/03 17:32:03;;;;;;;4.93;3.50;;;;;;;;;;12998433;22;20020;-83
2023/07/03 17:37:06;;;;;;;5.60;3.38;;;;;;;;;;12969860;22;20024;-84
2023/07/03 17:42:11;;;;;;;4.57;3.00;;;;;;;;;;12995743;22;20106;-84
2023/07/03 17:47:15;;;;;;;5.03;2.92;;;;;;;;;;12998464;22;20016;-83
2023/07/03 17:52:18;;;;;;;4.35;2.95;;;;;;;;;;12972183;22;20016;-83
2023/07/03 17:57:23;;;;;;;7.32;4.70;;;;;;;;;;12969241;22;20019;-84
2023/07/03 18:02:27;;;;;;;7.40;3.95;;;;;;;;;;12970483;22;20073;-84
2023/07/03 18:07:30;;;;;;;5.10;3.72;;;;;;;;;;12970684;22;20024;-83
2023/07/03 18:12:37;;;;;;;9.05;3.97;;;;;;;;;;12970338;22;20519;-85
2023/07/03 18:17:41;;;;;;;4.97;3.45;;;;;;;;;;12999497;22;20027;-83
2023/07/03 18:22:45;;;;;;;4.45;2.72;;;;;;;;;;13021178;22;20023;-84
2023/07/03 18:27:50;;;;;;;4.63;2.83;;;;;;;;;;12974347;22;20024;-83
2023/07/03 18:32:53;;;;;;;5.05;2.38;;;;;;;;;;12999485;22;20095;-84
2023/07/03 18:37:56;;;;;;;3.28;2.13;;;;;;;;;;12973811;22;20024;-83
2023/07/03 18:43:01;;;;;;;2.88;1.90;;;;;;;;;;12974006;22;20024;-84
2023/07/03 18:48:05;;;;;;;4.00;2.90;;;;;;;;;;12971120;22;20023;-84
2023/07/03 18:53:08;;;;;;;6.25;3.13;;;;;;;;;;13019430;22;20073;-84
2023/07/03 18:58:13;;;;;;;3.22;2.30;;;;;;;;;;12974407;22;20019;-84
2023/07/03 19:03:16;;;;;;;6.57;3.03;;;;;;;;;;12973760;22;20024;-84
2023/07/03 19:08:20;;;;;;;4.80;2.60;;;;;;;;;;12975412;22;20407;-83
2023/07/03 19:13:25;;;;;;;3.45;2.30;;;;;;;;;;12973354;22;20505;-84
2023/07/03 19:18:29;;;;;;;3.33;1.90;;;;;;;;;;12973570;22;20023;-83
2023/07/03 19:23:33;;;;;;;2.67;1.63;;;;;;;;;;13020095;22;20042;-84
2023/07/03 19:28:43;;;;;;;2.45;1.67;;;;;;;;;;12972759;22;20023;-86
2023/07/03 19:33:47;;;;;;;3.15;1.77;;;;;;;;;;12972199;22;20027;-86
2023/07/03 19:38:50;;;;;;;2.92;1.88;;;;;;;;;;12972703;22;20024;-83
2023/07/03 19:43:55;;;;;;;1.83;1.50;;;;;;;;;;12973392;22;20043;-84
2023/07/03 19:49:00;;;;;;;3.10;2.03;;;;;;;;;;12974913;22;20094;-85
2023/07/03 19:54:05;;;;;;;5.38;1.80;;;;;;;;;;12972848;22;20030;-84
2023/07/03 19:59:12;;;;;;;3.23;1.90;;;;;;;;;;12973803;22;20498;-82
2023/07/03 20:04:16;;;;;;;3.25;2.03;;;;;;;;;;12973303;22;20028;-83
2023/07/03 20:09:20;;;;;;;4.03;2.08;;;;;;;;;;12958730;22;20364;-85
2023/07/03 20:14:25;;;;;;;3.53;2.50;;;;;;;;;;12972567;22;20028;-85
2023/07/03 20:19:28;;;;;;;2.35;1.85;;;;;;;;;;12972973;22;20023;-85
2023/07/03 20:24:32;;;;;;;3.45;2.13;;;;;;;;;;12973024;22;20403;-85
2023/07/03 20:29:37;;;;;;;3.75;2.03;;;;;;;;;;12972898;22;20026;-85
2023/07/03 20:34:40;;;;;;;3.10;2.08;;;;;;;;;;12999984;22;20020;-84
2023/07/03 20:39:43;;;;;;;2.97;2.22;;;;;;;;;;12971921;22;20024;-84
2023/07/03 20:44:49;;;;;;;4.72;2.20;;;;;;;;;;12974756;22;20031;-84
2023/07/03 20:49:54;;;;;;;2.70;2.03;;;;;;;;;;12975653;22;20050;-85
2023/07/03 20:55:22;;;;;;;3.63;2.30;;;;;;;;;;12975708;22;20095;-85
2023/07/03 21:00:27;;;;;;;4.15;2.45;;;;;;;;;;13013012;22;20079;-84
2023/07/03 21:05:30;;;;;;;3.22;2.47;;;;;;;;;;12975658;22;20070;-85
2023/07/03 21:10:34;;;;;;;3.95;2.53;;;;;;;;;;12975789;22;20024;-84
2023/07/03 21:15:42;;;;;;;4.13;2.63;;;;;;;;;;13003102;22;20546;-84
2023/07/03 21:20:45;;;;;;;3.10;2.30;;;;;;;;;;12975719;22;20028;-85
2023/07/03 21:25:49;;;;;;;3.70;2.50;;;;;;;;;;13001355;22;20027;-85
2023/07/03 21:30:54;;;;;;;5.28;2.80;;;;;;;;;;13008060;22;20102;-85
2023/07/03 21:36:06;;;;;;;3.78;2.53;;;;;;;;;;12973296;22;20042;-85
2023/07/03 21:41:13;;;;;;;10.02;2.45;;;;;;;;;;13008111;22;20074;-84
2023/07/03 21:46:19;;;;;;;3.92;2.47;;;;;;;;;;12975690;22;20016;-85
2023/07/03 21:51:23;;;;;;;4.10;2.20;;;;;;;;;;12974554;22;20023;-84
2023/07/03 21:56:29;;;;;;;5.00;2.58;;;;;;;;;;12974033;22;20406;-84
2023/07/03 22:01:37;;;;;;;4.57;2.97;;;;;;;;;;12973018;22;20031;-84
2023/07/03 22:06:41;;;;;;;3.60;2.28;;;;;;;;;;12973684;22;20376;-84
2023/07/03 22:11:44;;;;;;;3.03;1.95;;;;;;;;;;12972490;22;20074;-85
2023/07/03 22:16:49;;;;;;;4.00;2.63;;;;;;;;;;13001121;22;20020;-84
2023/07/03 22:21:54;;;;;;;3.65;2.50;;;;;;;;;;12972888;22;20024;-84
2023/07/03 22:26:58;;;;;;;4.88;2.70;;;;;;;;;;13003406;22;20016;-84
2023/07/03 22:32:02;;;;;;;4.03;2.90;;;;;;;;;;12973522;22;20026;-84
2023/07/03 22:37:06;;;;;;;3.83;2.35;;;;;;;;;;12972604;22;20024;-84
2023/07/03 22:42:10;;;;;;;3.67;2.58;;;;;;;;;;12971931;22;20077;-84
2023/07/03 22:47:14;;;;;;;4.25;2.53;;;;;;;;;;12970967;22;20011;-84
2023/07/03 22:52:18;;;;;;;4.10;2.75;;;;;;;;;;12969941;22;20477;-85
2023/07/03 22:57:22;;;;;;;3.30;2.30;;;;;;;;;;12972668;22;20020;-84
2023/07/03 23:02:28;;;;;;;3.58;2.50;;;;;;;;;;12972006;22;20023;-83
2023/07/03 23:07:31;;;;;;;4.30;2.67;;;;;;;;;;12999927;22;20027;-84
2023/07/03 23:12:35;;;;;;;4.55;2.72;;;;;;;;;;12971142;22;20073;-84
2023/07/03 23:17:40;;;;;;;4.57;2.90;;;;;;;;;;12997609;22;20393;-84
2023/07/03 23:22:43;;;;;;;3.97;2.58;;;;;;;;;;12971058;22;20027;-84
2023/07/03 23:27:47;;;;;;;3.83;2.45;;;;;;;;;;12971410;22;20027;-84
2023/07/03 23:32:52;;;;;;;4.43;2.53;;;;;;;;;;12971575;22;20043;-84
2023/07/03 23:37:55;;;;;;;7.10;2.80;;;;;;;;;;12971464;22;20353;-84
2023/07/03 23:43:00;;;;;;;3.67;2.25;;;;;;;;;;13018634;22;20015;-84
2023/07/03 23:48:05;;;;;;;4.47;2.25;;;;;;;;;;12971200;22;20066;-84
2023/07/03 23:53:08;;;;;;;4.57;2.58;;;;;;;;;;12971577;22;20031;-84
2023/07/03 23:58:12;;;;;;;4.45;2.35;;;;;;;;;;12971358;22;20429;-84
